sensor_id;sensor_type;location;lat;lon;timestamp;P1;durP1;ratioP1;P2;durP2;ratioP2
11334;SDS011;5722;42.620;23.374;2022-09-30T00:00:31;10.57;;;8.27;;
11334;SDS011;5722;42.620;23.374;2022-09-30T00:12:13;9.43;;;7.80;;
11334;SDS011;5722;42.620;23.374;2022-09-30T00:14:55;9.77;;;7.93;;
11334;SDS011;5722;42.620;23.374;2022-09-30T00:17:26;10.37;;;7.87;;
11334;SDS011;5722;42.620;23.374;2022-09-30T00:20:02;8.87;;;7.30;;
11334;SDS011;5722;42.620;23.374;2022-09-30T00:22:33;9.53;;;7.80;;
11334;SDS011;5722;42.620;23.374;2022-09-30T00:25:15;9.07;;;7.63;;
11334;SDS011;5722;42.620;23.374;2022-09-30T00:27:49;7.73;;;6.93;;
11334;SDS011;5722;42.620;23.374;2022-09-30T00:39:26;8.53;;;7.10;;
11334;SDS011;5722;42.620;23.374;2022-09-30T00:42:10;11.77;;;7.23;;
11334;SDS011;5722;42.620;23.374;2022-09-30T00:44:59;10.17;;;7.17;;
11334;SDS011;5722;42.620;23.374;2022-09-30T00:47:38;11.00;;;8.20;;
11334;SDS011;5722;42.620;23.374;2022-09-30T00:50:18;9.53;;;7.40;;
11334;SDS011;5722;42.620;23.374;2022-09-30T00:52:48;8.33;;;6.93;;
11334;SDS011;5722;42.620;23.374;2022-09-30T00:55:30;10.13;;;6.83;;
11334;SDS011;5722;42.620;23.374;2022-09-30T00:58:02;10.70;;;7.13;;
11334;SDS011;5722;42.620;23.374;2022-09-30T01:00:32;8.60;;;7.37;;
11334;SDS011;5722;42.620;23.374;2022-09-30T01:02:59;9.77;;;7.70;;
11334;SDS011;5722;42.620;23.374;2022-09-30T01:08:14;11.90;;;7.40;;
11334;SDS011;5722;42.620;23.374;2022-09-30T01:10:53;8.63;;;7.73;;
11334;SDS011;5722;42.620;23.374;2022-09-30T01:13:22;13.43;;;8.53;;
11334;SDS011;5722;42.620;23.374;2022-09-30T01:16:17;13.57;;;8.87;;
11334;SDS011;5722;42.620;23.374;2022-09-30T01:18:53;12.27;;;8.07;;
11334;SDS011;5722;42.620;23.374;2022-09-30T01:30:21;10.57;;;7.50;;
11334;SDS011;5722;42.620;23.374;2022-09-30T01:32:57;12.37;;;7.47;;
11334;SDS011;5722;42.620;23.374;2022-09-30T01:35:38;10.73;;;8.13;;
11334;SDS011;5722;42.620;23.374;2022-09-30T01:38:10;10.90;;;8.43;;
11334;SDS011;5722;42.620;23.374;2022-09-30T01:40:39;14.83;;;8.30;;
11334;SDS011;5722;42.620;23.374;2022-09-30T01:43:09;13.07;;;8.27;;
11334;SDS011;5722;42.620;23.374;2022-09-30T01:45:41;14.23;;;8.80;;
11334;SDS011;5722;42.620;23.374;2022-09-30T01:48:16;15.83;;;8.43;;
11334;SDS011;5722;42.620;23.374;2022-09-30T01:50:46;12.30;;;8.73;;
11334;SDS011;5722;42.620;23.374;2022-09-30T01:56:16;10.97;;;8.87;;
11334;SDS011;5722;42.620;23.374;2022-09-30T02:01:46;10.87;;;9.60;;
11334;SDS011;5722;42.620;23.374;2022-09-30T02:04:33;9.77;;;8.77;;
11334;SDS011;5722;42.620;23.374;2022-09-30T02:07:04;13.30;;;9.17;;
11334;SDS011;5722;42.620;23.374;2022-09-30T02:09:35;12.30;;;9.00;;
11334;SDS011;5722;42.620;23.374;2022-09-30T02:15:22;10.77;;;9.17;;
11334;SDS011;5722;42.620;23.374;2022-09-30T02:17:54;14.10;;;8.70;;
11334;SDS011;5722;42.620;23.374;2022-09-30T02:20:25;13.97;;;8.60;;
11334;SDS011;5722;42.620;23.374;2022-09-30T02:23:07;13.57;;;9.50;;
11334;SDS011;5722;42.620;23.374;2022-09-30T02:25:53;15.53;;;9.83;;
11334;SDS011;5722;42.620;23.374;2022-09-30T02:28:26;19.17;;;10.33;;
11334;SDS011;5722;42.620;23.374;2022-09-30T02:31:04;13.80;;;10.00;;
11334;SDS011;5722;42.620;23.374;2022-09-30T02:33:49;14.80;;;10.17;;
11334;SDS011;5722;42.620;23.374;2022-09-30T02:39:36;14.43;;;10.50;;
11334;SDS011;5722;42.620;23.374;2022-09-30T02:42:11;18.67;;;11.30;;
11334;SDS011;5722;42.620;23.374;2022-09-30T02:50:53;11.33;;;9.47;;
11334;SDS011;5722;42.620;23.374;2022-09-30T02:53:24;14.93;;;9.40;;
11334;SDS011;5722;42.620;23.374;2022-09-30T02:56:08;14.83;;;9.63;;
11334;SDS011;5722;42.620;23.374;2022-09-30T02:58:37;20.77;;;10.57;;
11334;SDS011;5722;42.620;23.374;2022-09-30T03:03:53;16.10;;;12.23;;
11334;SDS011;5722;42.620;23.374;2022-09-30T03:06:21;15.63;;;10.00;;
11334;SDS011;5722;42.620;23.374;2022-09-30T03:08:52;12.47;;;9.37;;
11334;SDS011;5722;42.620;23.374;2022-09-30T03:11:25;18.33;;;11.57;;
11334;SDS011;5722;42.620;23.374;2022-09-30T03:14:01;16.10;;;12.07;;
11334;SDS011;5722;42.620;23.374;2022-09-30T03:16:37;18.83;;;11.87;;
11334;SDS011;5722;42.620;23.374;2022-09-30T03:22:41;18.43;;;11.33;;
11334;SDS011;5722;42.620;23.374;2022-09-30T03:25:14;21.20;;;13.03;;
11334;SDS011;5722;42.620;23.374;2022-09-30T03:27:57;19.87;;;13.70;;
11334;SDS011;5722;42.620;23.374;2022-09-30T03:30:29;18.33;;;12.77;;
11334;SDS011;5722;42.620;23.374;2022-09-30T03:33:02;19.90;;;13.50;;
11334;SDS011;5722;42.620;23.374;2022-09-30T03:35:34;39.80;;;20.90;;
11334;SDS011;5722;42.620;23.374;2022-09-30T03:38:08;122.23;;;26.17;;
11334;SDS011;5722;42.620;23.374;2022-09-30T03:43:46;222.00;;;28.30;;
11334;SDS011;5722;42.620;23.374;2022-09-30T03:46:15;88.63;;;23.77;;
11334;SDS011;5722;42.620;23.374;2022-09-30T03:48:49;52.07;;;21.10;;
11334;SDS011;5722;42.620;23.374;2022-09-30T03:51:21;235.40;;;26.23;;
11334;SDS011;5722;42.620;23.374;2022-09-30T03:53:55;459.90;;;27.03;;
11334;SDS011;5722;42.620;23.374;2022-09-30T03:59:31;609.47;;;35.30;;
11334;SDS011;5722;42.620;23.374;2022-09-30T04:02:01;682.33;;;35.63;;
11334;SDS011;5722;42.620;23.374;2022-09-30T04:04:33;412.63;;;28.83;;
11334;SDS011;5722;42.620;23.374;2022-09-30T04:07:09;884.13;;;40.60;;
11334;SDS011;5722;42.620;23.374;2022-09-30T04:09:39;433.03;;;30.60;;
11334;SDS011;5722;42.620;23.374;2022-09-30T04:12:07;359.10;;;30.03;;
11334;SDS011;5722;42.620;23.374;2022-09-30T04:14:42;458.67;;;29.27;;
11334;SDS011;5722;42.620;23.374;2022-09-30T04:17:10;282.93;;;28.77;;
11334;SDS011;5722;42.620;23.374;2022-09-30T04:19:42;471.00;;;32.30;;
11334;SDS011;5722;42.620;23.374;2022-09-30T04:22:20;640.60;;;35.43;;
11334;SDS011;5722;42.620;23.374;2022-09-30T04:24:48;466.07;;;31.97;;
11334;SDS011;5722;42.620;23.374;2022-09-30T04:27:16;244.37;;;27.50;;
11334;SDS011;5722;42.620;23.374;2022-09-30T04:29:48;98.53;;;23.70;;
11334;SDS011;5722;42.620;23.374;2022-09-30T04:32:17;124.57;;;24.57;;
11334;SDS011;5722;42.620;23.374;2022-09-30T04:35:02;176.20;;;26.50;;
11334;SDS011;5722;42.620;23.374;2022-09-30T04:37:35;267.23;;;25.33;;
11334;SDS011;5722;42.620;23.374;2022-09-30T04:40:05;282.67;;;27.27;;
11334;SDS011;5722;42.620;23.374;2022-09-30T04:42:34;267.00;;;27.37;;
11334;SDS011;5722;42.620;23.374;2022-09-30T04:45:04;299.90;;;41.07;;
11334;SDS011;5722;42.620;23.374;2022-09-30T04:47:31;195.23;;;58.93;;
11334;SDS011;5722;42.620;23.374;2022-09-30T04:49:59;228.27;;;33.87;;
11334;SDS011;5722;42.620;23.374;2022-09-30T04:52:27;370.33;;;33.53;;
11334;SDS011;5722;42.620;23.374;2022-09-30T04:54:55;156.50;;;25.27;;
11334;SDS011;5722;42.620;23.374;2022-09-30T04:57:27;136.63;;;24.37;;
11334;SDS011;5722;42.620;23.374;2022-09-30T04:59:55;110.10;;;25.43;;
11334;SDS011;5722;42.620;23.374;2022-09-30T05:02:25;576.17;;;37.20;;
11334;SDS011;5722;42.620;23.374;2022-09-30T05:04:54;77.03;;;23.73;;
11334;SDS011;5722;42.620;23.374;2022-09-30T05:07:21;103.37;;;25.40;;
11334;SDS011;5722;42.620;23.374;2022-09-30T05:09:49;261.03;;;29.73;;
11334;SDS011;5722;42.620;23.374;2022-09-30T05:12:23;165.33;;;29.43;;
11334;SDS011;5722;42.620;23.374;2022-09-30T05:14:52;138.23;;;27.23;;
11334;SDS011;5722;42.620;23.374;2022-09-30T05:17:25;106.60;;;25.50;;
11334;SDS011;5722;42.620;23.374;2022-09-30T05:20:01;45.17;;;22.97;;
11334;SDS011;5722;42.620;23.374;2022-09-30T05:22:40;37.30;;;20.17;;
11334;SDS011;5722;42.620;23.374;2022-09-30T05:25:12;30.33;;;20.07;;
11334;SDS011;5722;42.620;23.374;2022-09-30T05:27:54;36.13;;;21.23;;
11334;SDS011;5722;42.620;23.374;2022-09-30T05:30:41;45.03;;;23.33;;
11334;SDS011;5722;42.620;23.374;2022-09-30T05:36:39;235.30;;;28.33;;
11334;SDS011;5722;42.620;23.374;2022-09-30T05:42:14;489.20;;;34.77;;
11334;SDS011;5722;42.620;23.374;2022-09-30T05:45:05;322.80;;;31.73;;
11334;SDS011;5722;42.620;23.374;2022-09-30T05:47:33;392.37;;;33.73;;
11334;SDS011;5722;42.620;23.374;2022-09-30T05:50:00;524.53;;;32.67;;
11334;SDS011;5722;42.620;23.374;2022-09-30T05:52:36;491.37;;;34.23;;
11334;SDS011;5722;42.620;23.374;2022-09-30T05:55:04;330.57;;;28.23;;
11334;SDS011;5722;42.620;23.374;2022-09-30T05:57:31;46.50;;;23.37;;
11334;SDS011;5722;42.620;23.374;2022-09-30T05:59:59;175.03;;;24.90;;
11334;SDS011;5722;42.620;23.374;2022-09-30T06:02:33;63.73;;;23.30;;
11334;SDS011;5722;42.620;23.374;2022-09-30T06:05:06;190.93;;;26.37;;
11334;SDS011;5722;42.620;23.374;2022-09-30T06:07:35;204.43;;;24.80;;
11334;SDS011;5722;42.620;23.374;2022-09-30T06:10:02;49.70;;;23.43;;
11334;SDS011;5722;42.620;23.374;2022-09-30T06:12:36;57.03;;;29.37;;
11334;SDS011;5722;42.620;23.374;2022-09-30T06:15:05;78.10;;;28.87;;
11334;SDS011;5722;42.620;23.374;2022-09-30T06:17:34;76.43;;;40.93;;
11334;SDS011;5722;42.620;23.374;2022-09-30T06:20:04;110.73;;;29.10;;
11334;SDS011;5722;42.620;23.374;2022-09-30T06:25:24;54.50;;;26.80;;
11334;SDS011;5722;42.620;23.374;2022-09-30T06:27:58;60.80;;;32.37;;
11334;SDS011;5722;42.620;23.374;2022-09-30T06:30:33;59.97;;;27.77;;
11334;SDS011;5722;42.620;23.374;2022-09-30T06:33:04;61.97;;;28.03;;
11334;SDS011;5722;42.620;23.374;2022-09-30T06:35:36;88.77;;;53.87;;
11334;SDS011;5722;42.620;23.374;2022-09-30T06:38:10;62.83;;;38.93;;
11334;SDS011;5722;42.620;23.374;2022-09-30T06:40:49;48.17;;;30.07;;
11334;SDS011;5722;42.620;23.374;2022-09-30T06:43:19;46.83;;;29.17;;
11334;SDS011;5722;42.620;23.374;2022-09-30T06:45:48;44.40;;;26.30;;
11334;SDS011;5722;42.620;23.374;2022-09-30T06:48:21;36.57;;;25.33;;
11334;SDS011;5722;42.620;23.374;2022-09-30T06:50:55;38.88;;;26.23;;
11334;SDS011;5722;42.620;23.374;2022-09-30T06:53:23;35.07;;;27.23;;
11334;SDS011;5722;42.620;23.374;2022-09-30T06:55:56;34.10;;;24.52;;
11334;SDS011;5722;42.620;23.374;2022-09-30T06:58:34;28.77;;;23.63;;
11334;SDS011;5722;42.620;23.374;2022-09-30T07:01:03;31.83;;;24.13;;
11334;SDS011;5722;42.620;23.374;2022-09-30T07:06:39;39.50;;;24.40;;
11334;SDS011;5722;42.620;23.374;2022-09-30T07:09:13;37.75;;;25.55;;
11334;SDS011;5722;42.620;23.374;2022-09-30T07:11:51;36.42;;;27.67;;
11334;SDS011;5722;42.620;23.374;2022-09-30T07:14:21;30.27;;;22.50;;
11334;SDS011;5722;42.620;23.374;2022-09-30T07:19:50;30.25;;;23.25;;
11334;SDS011;5722;42.620;23.374;2022-09-30T07:22:19;37.60;;;25.35;;
11334;SDS011;5722;42.620;23.374;2022-09-30T07:24:56;34.50;;;25.27;;
11334;SDS011;5722;42.620;23.374;2022-09-30T07:27:31;27.77;;;21.83;;
11334;SDS011;5722;42.620;23.374;2022-09-30T07:30:00;25.73;;;19.92;;
11334;SDS011;5722;42.620;23.374;2022-09-30T07:32:29;25.55;;;19.60;;
11334;SDS011;5722;42.620;23.374;2022-09-30T07:35:11;26.05;;;20.55;;
11334;SDS011;5722;42.620;23.374;2022-09-30T07:37:38;24.00;;;18.75;;
11334;SDS011;5722;42.620;23.374;2022-09-30T07:40:06;19.33;;;15.73;;
11334;SDS011;5722;42.620;23.374;2022-09-30T07:45:30;26.95;;;20.80;;
11334;SDS011;5722;42.620;23.374;2022-09-30T07:47:57;30.00;;;22.48;;
11334;SDS011;5722;42.620;23.374;2022-09-30T07:50:26;31.45;;;22.90;;
11334;SDS011;5722;42.620;23.374;2022-09-30T07:52:53;34.38;;;23.92;;
11334;SDS011;5722;42.620;23.374;2022-09-30T07:55:23;28.75;;;20.48;;
11334;SDS011;5722;42.620;23.374;2022-09-30T07:57:54;27.25;;;22.85;;
11334;SDS011;5722;42.620;23.374;2022-09-30T08:00:22;32.10;;;22.55;;
11334;SDS011;5722;42.620;23.374;2022-09-30T08:02:54;29.15;;;21.70;;
11334;SDS011;5722;42.620;23.374;2022-09-30T08:05:24;31.13;;;20.25;;
11334;SDS011;5722;42.620;23.374;2022-09-30T08:07:51;23.80;;;19.05;;
11334;SDS011;5722;42.620;23.374;2022-09-30T08:10:43;25.52;;;18.60;;
11334;SDS011;5722;42.620;23.374;2022-09-30T08:13:11;26.08;;;18.65;;
11334;SDS011;5722;42.620;23.374;2022-09-30T08:15:41;27.27;;;16.27;;
11334;SDS011;5722;42.620;23.374;2022-09-30T08:18:12;21.58;;;13.63;;
11334;SDS011;5722;42.620;23.374;2022-09-30T08:20:39;18.40;;;13.20;;
11334;SDS011;5722;42.620;23.374;2022-09-30T08:23:06;16.27;;;11.93;;
11334;SDS011;5722;42.620;23.374;2022-09-30T08:25:33;15.77;;;12.57;;
11334;SDS011;5722;42.620;23.374;2022-09-30T08:28:00;17.55;;;11.93;;
11334;SDS011;5722;42.620;23.374;2022-09-30T08:30:27;18.42;;;8.32;;
11334;SDS011;5722;42.620;23.374;2022-09-30T08:32:54;10.90;;;8.18;;
11334;SDS011;5722;42.620;23.374;2022-09-30T08:35:27;11.88;;;7.82;;
11334;SDS011;5722;42.620;23.374;2022-09-30T08:37:55;8.40;;;7.35;;
11334;SDS011;5722;42.620;23.374;2022-09-30T08:40:22;16.40;;;8.63;;
11334;SDS011;5722;42.620;23.374;2022-09-30T08:42:55;11.77;;;8.43;;
11334;SDS011;5722;42.620;23.374;2022-09-30T08:45:28;17.13;;;8.95;;
11334;SDS011;5722;42.620;23.374;2022-09-30T08:48:02;11.35;;;8.10;;
11334;SDS011;5722;42.620;23.374;2022-09-30T08:50:36;13.88;;;8.05;;
11334;SDS011;5722;42.620;23.374;2022-09-30T08:53:11;10.45;;;7.18;;
11334;SDS011;5722;42.620;23.374;2022-09-30T08:55:45;12.07;;;6.82;;
11334;SDS011;5722;42.620;23.374;2022-09-30T08:58:15;12.98;;;8.15;;
11334;SDS011;5722;42.620;23.374;2022-09-30T09:00:45;8.88;;;7.97;;
11334;SDS011;5722;42.620;23.374;2022-09-30T09:03:12;11.18;;;8.63;;
11334;SDS011;5722;42.620;23.374;2022-09-30T09:05:49;13.32;;;7.50;;
11334;SDS011;5722;42.620;23.374;2022-09-30T09:08:24;13.93;;;8.00;;
11334;SDS011;5722;42.620;23.374;2022-09-30T09:10:54;10.73;;;7.35;;
11334;SDS011;5722;42.620;23.374;2022-09-30T09:13:33;10.73;;;7.18;;
11334;SDS011;5722;42.620;23.374;2022-09-30T09:16:16;10.48;;;7.65;;
11334;SDS011;5722;42.620;23.374;2022-09-30T09:19:18;10.25;;;7.15;;
11334;SDS011;5722;42.620;23.374;2022-09-30T09:21:59;9.82;;;6.15;;
11334;SDS011;5722;42.620;23.374;2022-09-30T09:24:34;12.50;;;6.82;;
11334;SDS011;5722;42.620;23.374;2022-09-30T09:27:15;12.80;;;6.30;;
11334;SDS011;5722;42.620;23.374;2022-09-30T09:29:45;6.75;;;5.55;;
11334;SDS011;5722;42.620;23.374;2022-09-30T09:32:19;10.80;;;5.90;;
11334;SDS011;5722;42.620;23.374;2022-09-30T09:34:49;6.18;;;5.18;;
11334;SDS011;5722;42.620;23.374;2022-09-30T09:37:24;8.02;;;6.20;;
11334;SDS011;5722;42.620;23.374;2022-09-30T09:40:13;18.58;;;6.57;;
11334;SDS011;5722;42.620;23.374;2022-09-30T09:43:00;14.13;;;7.28;;
11334;SDS011;5722;42.620;23.374;2022-09-30T09:45:48;12.32;;;7.10;;
11334;SDS011;5722;42.620;23.374;2022-09-30T09:48:21;10.38;;;6.93;;
11334;SDS011;5722;42.620;23.374;2022-09-30T09:51:01;10.98;;;6.53;;
11334;SDS011;5722;42.620;23.374;2022-09-30T09:53:43;10.35;;;6.18;;
11334;SDS011;5722;42.620;23.374;2022-09-30T09:56:16;10.60;;;5.47;;
11334;SDS011;5722;42.620;23.374;2022-09-30T09:59:07;9.25;;;5.60;;
11334;SDS011;5722;42.620;23.374;2022-09-30T10:01:38;11.80;;;7.07;;
11334;SDS011;5722;42.620;23.374;2022-09-30T10:12:45;12.25;;;4.50;;
11334;SDS011;5722;42.620;23.374;2022-09-30T10:20:54;6.47;;;4.40;;
11334;SDS011;5722;42.620;23.374;2022-09-30T10:29:37;8.73;;;4.50;;
11334;SDS011;5722;42.620;23.374;2022-09-30T10:38:55;4.85;;;3.63;;
11334;SDS011;5722;42.620;23.374;2022-09-30T10:56:39;5.20;;;3.80;;
11334;SDS011;5722;42.620;23.374;2022-09-30T11:02:28;8.68;;;4.53;;
11334;SDS011;5722;42.620;23.374;2022-09-30T11:08:09;6.85;;;3.72;;
11334;SDS011;5722;42.620;23.374;2022-09-30T11:20:33;7.22;;;3.22;;
11334;SDS011;5722;42.620;23.374;2022-09-30T11:26:11;4.57;;;3.55;;
11334;SDS011;5722;42.620;23.374;2022-09-30T11:32:17;5.80;;;2.90;;
11334;SDS011;5722;42.620;23.374;2022-09-30T12:02:03;6.15;;;2.90;;
11334;SDS011;5722;42.620;23.374;2022-09-30T12:26:14;4.05;;;2.35;;
11334;SDS011;5722;42.620;23.374;2022-09-30T12:59:38;3.92;;;2.30;;
11334;SDS011;5722;42.620;23.374;2022-09-30T13:21:21;6.15;;;1.65;;
11334;SDS011;5722;42.620;23.374;2022-09-30T13:23:50;2.80;;;1.60;;
11334;SDS011;5722;42.620;23.374;2022-09-30T13:32:32;2.00;;;1.45;;
11334;SDS011;5722;42.620;23.374;2022-09-30T13:35:01;3.17;;;1.73;;
11334;SDS011;5722;42.620;23.374;2022-09-30T13:40:54;3.35;;;1.60;;
11334;SDS011;5722;42.620;23.374;2022-09-30T13:43:24;3.65;;;1.60;;
11334;SDS011;5722;42.620;23.374;2022-09-30T13:46:23;4.88;;;1.70;;
11334;SDS011;5722;42.620;23.374;2022-09-30T13:49:00;2.40;;;1.60;;
11334;SDS011;5722;42.620;23.374;2022-09-30T13:51:30;7.47;;;1.65;;
11334;SDS011;5722;42.620;23.374;2022-09-30T13:54:05;3.58;;;1.90;;
11334;SDS011;5722;42.620;23.374;2022-09-30T13:56:35;2.67;;;1.73;;
11334;SDS011;5722;42.620;23.374;2022-09-30T14:04:54;7.13;;;2.08;;
11334;SDS011;5722;42.620;23.374;2022-09-30T14:07:42;3.20;;;1.50;;
11334;SDS011;5722;42.620;23.374;2022-09-30T14:10:28;15.43;;;1.83;;
11334;SDS011;5722;42.620;23.374;2022-09-30T14:13:11;1.30;;;1.20;;
11334;SDS011;5722;42.620;23.374;2022-09-30T14:15:45;2.95;;;1.35;;
11334;SDS011;5722;42.620;23.374;2022-09-30T14:18:24;2.72;;;1.50;;
11334;SDS011;5722;42.620;23.374;2022-09-30T14:21:14;2.75;;;1.33;;
11334;SDS011;5722;42.620;23.374;2022-09-30T14:26:55;2.20;;;1.40;;
11334;SDS011;5722;42.620;23.374;2022-09-30T14:29:46;3.80;;;1.65;;
11334;SDS011;5722;42.620;23.374;2022-09-30T14:32:19;4.38;;;1.50;;
11334;SDS011;5722;42.620;23.374;2022-09-30T14:35:06;3.30;;;1.73;;
11334;SDS011;5722;42.620;23.374;2022-09-30T14:37:35;2.53;;;1.50;;
11334;SDS011;5722;42.620;23.374;2022-09-30T14:40:07;3.75;;;1.30;;
11334;SDS011;5722;42.620;23.374;2022-09-30T14:42:37;2.80;;;1.40;;
11334;SDS011;5722;42.620;23.374;2022-09-30T14:45:20;1.98;;;1.40;;
11334;SDS011;5722;42.620;23.374;2022-09-30T14:47:57;8.70;;;1.88;;
11334;SDS011;5722;42.620;23.374;2022-09-30T14:50:40;5.53;;;1.70;;
11334;SDS011;5722;42.620;23.374;2022-09-30T14:53:22;4.35;;;1.42;;
11334;SDS011;5722;42.620;23.374;2022-09-30T14:55:50;4.13;;;1.60;;
11334;SDS011;5722;42.620;23.374;2022-09-30T14:58:26;1.70;;;1.48;;
11334;SDS011;5722;42.620;23.374;2022-09-30T15:01:07;4.93;;;1.60;;
11334;SDS011;5722;42.620;23.374;2022-09-30T15:03:41;3.47;;;1.80;;
11334;SDS011;5722;42.620;23.374;2022-09-30T15:06:18;3.83;;;1.80;;
11334;SDS011;5722;42.620;23.374;2022-09-30T15:08:48;3.55;;;1.70;;
11334;SDS011;5722;42.620;23.374;2022-09-30T15:11:16;8.90;;;2.40;;
11334;SDS011;5722;42.620;23.374;2022-09-30T15:13:56;6.63;;;2.15;;
11334;SDS011;5722;42.620;23.374;2022-09-30T15:16:26;7.13;;;2.10;;
11334;SDS011;5722;42.620;23.374;2022-09-30T15:19:14;4.43;;;1.85;;
11334;SDS011;5722;42.620;23.374;2022-09-30T15:21:46;3.35;;;1.85;;
11334;SDS011;5722;42.620;23.374;2022-09-30T15:24:19;7.95;;;2.10;;
11334;SDS011;5722;42.620;23.374;2022-09-30T15:26:59;1.50;;;1.40;;
11334;SDS011;5722;42.620;23.374;2022-09-30T15:29:28;5.35;;;1.98;;
11334;SDS011;5722;42.620;23.374;2022-09-30T15:32:11;4.55;;;1.92;;
11334;SDS011;5722;42.620;23.374;2022-09-30T15:34:44;3.20;;;2.10;;
11334;SDS011;5722;42.620;23.374;2022-09-30T15:37:22;8.50;;;2.60;;
11334;SDS011;5722;42.620;23.374;2022-09-30T15:43:02;2.20;;;2.00;;
11334;SDS011;5722;42.620;23.374;2022-09-30T15:45:32;4.18;;;2.58;;
11334;SDS011;5722;42.620;23.374;2022-09-30T15:48:06;4.72;;;3.30;;
11334;SDS011;5722;42.620;23.374;2022-09-30T15:50:37;10.50;;;4.18;;
11334;SDS011;5722;42.620;23.374;2022-09-30T15:53:11;5.88;;;3.83;;
11334;SDS011;5722;42.620;23.374;2022-09-30T15:55:41;8.50;;;4.50;;
11334;SDS011;5722;42.620;23.374;2022-09-30T16:06:45;7.88;;;4.28;;
11334;SDS011;5722;42.620;23.374;2022-09-30T16:09:23;6.32;;;3.97;;
11334;SDS011;5722;42.620;23.374;2022-09-30T16:12:03;8.77;;;3.08;;
11334;SDS011;5722;42.620;23.374;2022-09-30T16:14:43;8.23;;;4.38;;
11334;SDS011;5722;42.620;23.374;2022-09-30T16:17:14;6.38;;;3.70;;
11334;SDS011;5722;42.620;23.374;2022-09-30T16:28:39;15.85;;;5.53;;
11334;SDS011;5722;42.620;23.374;2022-09-30T16:31:11;7.40;;;4.97;;
11334;SDS011;5722;42.620;23.374;2022-09-30T16:33:43;7.78;;;5.28;;
11334;SDS011;5722;42.620;23.374;2022-09-30T16:36:15;11.63;;;8.25;;
11334;SDS011;5722;42.620;23.374;2022-09-30T16:38:47;8.10;;;5.68;;
11334;SDS011;5722;42.620;23.374;2022-09-30T16:41:15;10.77;;;5.00;;
11334;SDS011;5722;42.620;23.374;2022-09-30T16:43:43;8.40;;;4.65;;
11334;SDS011;5722;42.620;23.374;2022-09-30T16:46:10;8.70;;;4.68;;
11334;SDS011;5722;42.620;23.374;2022-09-30T16:48:42;10.50;;;4.70;;
11334;SDS011;5722;42.620;23.374;2022-09-30T16:51:11;5.97;;;4.72;;
11334;SDS011;5722;42.620;23.374;2022-09-30T16:53:41;7.45;;;5.18;;
11334;SDS011;5722;42.620;23.374;2022-09-30T16:56:13;13.43;;;5.20;;
11334;SDS011;5722;42.620;23.374;2022-09-30T16:58:44;7.35;;;4.28;;
11334;SDS011;5722;42.620;23.374;2022-09-30T17:01:14;8.95;;;3.88;;
11334;SDS011;5722;42.620;23.374;2022-09-30T17:03:50;9.65;;;4.45;;
11334;SDS011;5722;42.620;23.374;2022-09-30T17:06:24;7.47;;;5.38;;
11334;SDS011;5722;42.620;23.374;2022-09-30T17:08:53;13.70;;;6.50;;
11334;SDS011;5722;42.620;23.374;2022-09-30T17:11:22;9.10;;;4.95;;
11334;SDS011;5722;42.620;23.374;2022-09-30T17:13:52;9.70;;;5.30;;
11334;SDS011;5722;42.620;23.374;2022-09-30T17:16:20;5.75;;;4.88;;
11334;SDS011;5722;42.620;23.374;2022-09-30T17:18:47;8.63;;;4.18;;
11334;SDS011;5722;42.620;23.374;2022-09-30T17:21:15;6.32;;;4.05;;
11334;SDS011;5722;42.620;23.374;2022-09-30T17:23:50;12.30;;;4.72;;
11334;SDS011;5722;42.620;23.374;2022-09-30T17:26:22;7.68;;;3.58;;
11334;SDS011;5722;42.620;23.374;2022-09-30T17:28:55;7.32;;;4.10;;
11334;SDS011;5722;42.620;23.374;2022-09-30T17:31:24;9.75;;;3.90;;
11334;SDS011;5722;42.620;23.374;2022-09-30T17:33:52;6.93;;;3.90;;
11334;SDS011;5722;42.620;23.374;2022-09-30T17:36:22;21.77;;;4.80;;
11334;SDS011;5722;42.620;23.374;2022-09-30T17:38:52;6.95;;;4.30;;
11334;SDS011;5722;42.620;23.374;2022-09-30T17:41:27;5.95;;;4.25;;
11334;SDS011;5722;42.620;23.374;2022-09-30T17:44:13;8.35;;;4.22;;
11334;SDS011;5722;42.620;23.374;2022-09-30T17:46:45;7.55;;;4.60;;
11334;SDS011;5722;42.620;23.374;2022-09-30T17:49:32;6.28;;;3.70;;
11334;SDS011;5722;42.620;23.374;2022-09-30T17:52:06;5.32;;;3.30;;
11334;SDS011;5722;42.620;23.374;2022-09-30T17:54:39;4.88;;;3.20;;
11334;SDS011;5722;42.620;23.374;2022-09-30T17:57:08;5.53;;;3.65;;
11334;SDS011;5722;42.620;23.374;2022-09-30T18:02:19;3.28;;;2.97;;
11334;SDS011;5722;42.620;23.374;2022-09-30T18:05:01;4.35;;;3.15;;
11334;SDS011;5722;42.620;23.374;2022-09-30T18:07:30;6.25;;;2.90;;
11334;SDS011;5722;42.620;23.374;2022-09-30T18:10:07;5.47;;;2.75;;
11334;SDS011;5722;42.620;23.374;2022-09-30T18:12:35;4.35;;;2.55;;
11334;SDS011;5722;42.620;23.374;2022-09-30T18:15:02;6.30;;;3.00;;
11334;SDS011;5722;42.620;23.374;2022-09-30T18:17:31;4.40;;;3.20;;
11334;SDS011;5722;42.620;23.374;2022-09-30T18:20:00;5.88;;;3.20;;
11334;SDS011;5722;42.620;23.374;2022-09-30T18:22:31;4.68;;;2.70;;
11334;SDS011;5722;42.620;23.374;2022-09-30T18:24:58;9.13;;;2.88;;
11334;SDS011;5722;42.620;23.374;2022-09-30T18:27:42;5.55;;;3.13;;
11334;SDS011;5722;42.620;23.374;2022-09-30T18:30:10;7.55;;;3.22;;
11334;SDS011;5722;42.620;23.374;2022-09-30T18:32:50;5.75;;;3.25;;
11334;SDS011;5722;42.620;23.374;2022-09-30T18:35:19;5.95;;;3.40;;
11334;SDS011;5722;42.620;23.374;2022-09-30T18:37:46;5.80;;;2.90;;
11334;SDS011;5722;42.620;23.374;2022-09-30T18:40:19;5.55;;;2.97;;
11334;SDS011;5722;42.620;23.374;2022-09-30T18:42:53;7.35;;;3.10;;
11334;SDS011;5722;42.620;23.374;2022-09-30T18:45:26;7.07;;;3.35;;
11334;SDS011;5722;42.620;23.374;2022-09-30T18:48:05;5.38;;;3.38;;
11334;SDS011;5722;42.620;23.374;2022-09-30T18:50:33;7.13;;;3.20;;
11334;SDS011;5722;42.620;23.374;2022-09-30T18:53:00;9.50;;;3.20;;
11334;SDS011;5722;42.620;23.374;2022-09-30T18:55:32;8.43;;;4.78;;
11334;SDS011;5722;42.620;23.374;2022-09-30T18:58:01;8.57;;;5.43;;
11334;SDS011;5722;42.620;23.374;2022-09-30T19:00:28;19.42;;;7.97;;
11334;SDS011;5722;42.620;23.374;2022-09-30T19:03:01;14.38;;;8.82;;
11334;SDS011;5722;42.620;23.374;2022-09-30T19:05:29;9.95;;;5.45;;
11334;SDS011;5722;42.620;23.374;2022-09-30T19:07:57;12.13;;;6.88;;
11334;SDS011;5722;42.620;23.374;2022-09-30T19:10:25;10.38;;;6.57;;
11334;SDS011;5722;42.620;23.374;2022-09-30T19:13:02;9.85;;;4.60;;
11334;SDS011;5722;42.620;23.374;2022-09-30T19:15:30;10.63;;;4.40;;
11334;SDS011;5722;42.620;23.374;2022-09-30T19:18:09;5.47;;;4.43;;
11334;SDS011;5722;42.620;23.374;2022-09-30T19:20:40;5.03;;;4.40;;
11334;SDS011;5722;42.620;23.374;2022-09-30T19:23:07;6.47;;;4.60;;
11334;SDS011;5722;42.620;23.374;2022-09-30T19:25:35;8.73;;;4.40;;
11334;SDS011;5722;42.620;23.374;2022-09-30T19:28:04;8.57;;;4.47;;
11334;SDS011;5722;42.620;23.374;2022-09-30T19:30:31;5.67;;;4.37;;
11334;SDS011;5722;42.620;23.374;2022-09-30T19:33:02;7.70;;;5.00;;
11334;SDS011;5722;42.620;23.374;2022-09-30T19:35:31;7.67;;;5.03;;
11334;SDS011;5722;42.620;23.374;2022-09-30T19:38:00;6.73;;;4.60;;
11334;SDS011;5722;42.620;23.374;2022-09-30T19:40:31;5.43;;;4.23;;
11334;SDS011;5722;42.620;23.374;2022-09-30T19:42:58;6.90;;;4.90;;
11334;SDS011;5722;42.620;23.374;2022-09-30T19:45:28;10.60;;;4.13;;
11334;SDS011;5722;42.620;23.374;2022-09-30T19:47:57;5.83;;;4.13;;
11334;SDS011;5722;42.620;23.374;2022-09-30T19:50:38;17.33;;;4.57;;
11334;SDS011;5722;42.620;23.374;2022-09-30T19:53:06;11.37;;;5.03;;